createdAt,value
2022-12-05T00:00:44.980Z,7.06
2022-12-05T00:01:45.075Z,7.03
2022-12-05T00:02:44.999Z,6.85
2022-12-05T00:03:45.019Z,6.98
2022-12-05T00:04:45.013Z,7.06
2022-12-05T00:05:44.957Z,7.10
2022-12-05T00:06:44.956Z,6.91
2022-12-05T00:07:45.015Z,7.02
2022-12-05T00:08:44.949Z,7.03
2022-12-05T00:09:44.936Z,6.88
2022-12-05T00:10:44.937Z,6.87
2022-12-05T00:11:44.929Z,6.92
2022-12-05T00:12:44.929Z,6.99
2022-12-05T00:13:44.923Z,7.12
2022-12-05T00:14:44.918Z,7.21
2022-12-05T00:15:44.907Z,7.13
2022-12-05T00:16:44.907Z,7.02
2022-12-05T00:17:44.898Z,7.23
2022-12-05T00:18:44.923Z,7.20
2022-12-05T00:19:44.890Z,7.24
2022-12-05T00:20:44.891Z,7.17
2022-12-05T00:21:44.882Z,7.13
2022-12-05T00:22:44.880Z,7.13
2022-12-05T00:23:44.879Z,7.23
2022-12-05T00:24:44.869Z,6.98
2022-12-05T00:25:44.867Z,6.99
2022-12-05T00:26:44.888Z,7.02
2022-12-05T00:27:44.860Z,7.24
2022-12-05T00:28:44.849Z,7.20
2022-12-05T00:29:44.850Z,7.28
2022-12-05T00:30:44.847Z,7.21
2022-12-05T00:31:44.883Z,7.32
2022-12-05T00:32:44.838Z,7.25
2022-12-05T00:33:44.833Z,7.28
2022-12-05T00:34:44.848Z,7.20
2022-12-05T00:35:44.821Z,7.25
2022-12-05T00:36:44.819Z,7.31
2022-12-05T00:37:44.816Z,7.35
2022-12-05T00:38:44.808Z,7.43
2022-12-05T00:39:44.802Z,7.21
2022-12-05T00:40:44.796Z,7.34
2022-12-05T00:41:44.797Z,7.25
2022-12-05T00:42:48.088Z,7.15
2022-12-05T00:43:44.791Z,7.15
2022-12-05T00:44:44.783Z,7.25
2022-12-05T00:45:44.807Z,7.20
2022-12-05T00:46:44.779Z,7.40
2022-12-05T00:47:44.766Z,7.34
2022-12-05T00:48:44.762Z,7.23
2022-12-05T00:49:44.758Z,7.30
2022-12-05T00:50:44.772Z,7.30
2022-12-05T00:51:44.752Z,7.21
2022-12-05T00:52:44.739Z,7.34
2022-12-05T00:53:44.738Z,7.39
2022-12-05T00:54:44.732Z,7.34
2022-12-05T00:55:44.731Z,7.39
2022-12-05T00:56:44.723Z,7.49
2022-12-05T00:57:44.726Z,7.39
2022-12-05T00:58:44.723Z,7.25
2022-12-05T00:59:44.714Z,7.17
2022-12-05T01:00:44.705Z,7.20
2022-12-05T01:01:44.797Z,7.15
2022-12-05T01:02:44.779Z,7.13
2022-12-05T01:03:44.694Z,7.23
2022-12-05T01:04:44.688Z,7.23
2022-12-05T01:05:44.687Z,7.32
2022-12-05T01:06:44.707Z,7.31
2022-12-05T01:07:44.718Z,7.32
2022-12-05T01:08:44.676Z,7.28
2022-12-05T01:09:44.666Z,7.28
2022-12-05T01:10:44.661Z,7.28
2022-12-05T01:11:44.657Z,7.28
2022-12-05T01:12:44.653Z,7.35
2022-12-05T01:13:44.657Z,7.21
2022-12-05T01:14:44.644Z,7.21
2022-12-05T01:15:44.642Z,7.12
2022-12-05T01:16:44.683Z,7.09
2022-12-05T01:17:44.637Z,6.99
2022-12-05T01:18:44.623Z,7.05
2022-12-05T01:19:44.620Z,7.03
2022-12-05T01:20:44.614Z,6.91
2022-12-05T01:21:44.612Z,7.16
2022-12-05T01:22:44.632Z,6.99
2022-12-05T01:23:44.605Z,7.02
2022-12-05T01:24:44.597Z,7.05
2022-12-05T01:25:44.598Z,7.03
2022-12-05T01:26:44.588Z,7.02
2022-12-05T01:27:44.584Z,6.99
2022-12-05T01:28:44.741Z,7.10
2022-12-05T01:29:44.578Z,7.10
2022-12-05T01:30:44.569Z,7.12
2022-12-05T01:31:44.622Z,6.99
2022-12-05T01:32:44.563Z,6.97
2022-12-05T01:33:44.558Z,6.87
2022-12-05T01:34:44.552Z,7.07
2022-12-05T01:35:44.553Z,7.06
2022-12-05T01:36:44.542Z,7.03
2022-12-05T01:37:44.544Z,7.03
2022-12-05T01:38:44.559Z,6.89
2022-12-05T01:39:44.535Z,6.98
2022-12-05T01:40:44.531Z,6.88
2022-12-05T01:41:44.525Z,6.77
2022-12-05T01:42:44.517Z,6.87
2022-12-05T01:43:44.513Z,6.89
2022-12-05T01:44:44.506Z,6.87
2022-12-05T01:45:44.565Z,6.95
2022-12-05T01:46:44.497Z,6.85
2022-12-05T01:47:44.497Z,6.79
2022-12-05T01:48:44.487Z,6.73
2022-12-05T01:49:44.488Z,6.73
2022-12-05T01:50:44.486Z,6.73
2022-12-05T01:51:44.476Z,6.89
2022-12-05T01:52:44.472Z,6.87
2022-12-05T01:53:44.467Z,6.94
2022-12-05T01:54:44.496Z,6.84
2022-12-05T01:55:44.461Z,6.92
2022-12-05T01:56:44.451Z,6.84
2022-12-05T01:57:44.451Z,6.85
2022-12-05T01:58:44.447Z,6.91
2022-12-05T01:59:44.445Z,6.85
2022-12-05T02:00:44.434Z,6.85
2022-12-05T02:01:44.570Z,6.87
2022-12-05T02:02:44.472Z,6.94
2022-12-05T02:03:44.424Z,6.87
2022-12-05T02:04:44.416Z,6.81
2022-12-05T02:05:44.417Z,6.92
2022-12-05T02:06:44.406Z,6.99
2022-12-05T02:07:44.441Z,6.81
2022-12-05T02:08:44.398Z,6.94
2022-12-05T02:09:44.397Z,6.91
2022-12-05T02:10:44.416Z,6.80
2022-12-05T02:11:44.385Z,6.79
2022-12-05T02:12:44.380Z,6.74
2022-12-05T02:13:44.377Z,6.87
2022-12-05T02:14:44.372Z,6.91
2022-12-05T02:15:44.368Z,6.91
2022-12-05T02:16:44.444Z,6.81
2022-12-05T02:17:44.356Z,6.91
2022-12-05T02:18:44.351Z,6.81
2022-12-05T02:19:44.356Z,6.84
2022-12-05T02:20:44.342Z,6.84
2022-12-05T02:21:44.342Z,6.85
2022-12-05T02:22:44.332Z,6.81
2022-12-05T02:23:44.336Z,6.88
2022-12-05T02:24:44.323Z,6.88
2022-12-05T02:25:44.318Z,6.84
2022-12-05T02:26:44.336Z,6.85
2022-12-05T02:27:44.313Z,6.87
2022-12-05T02:28:44.302Z,6.89
2022-12-05T02:29:44.303Z,6.85
2022-12-05T02:30:44.298Z,6.88
2022-12-05T02:31:44.392Z,6.87
2022-12-05T02:32:44.284Z,6.88
2022-12-05T02:33:44.283Z,6.88
2022-12-05T02:34:44.277Z,6.73
2022-12-05T02:35:44.273Z,6.87
2022-12-05T02:36:44.267Z,6.88
2022-12-05T02:37:44.266Z,7.02
2022-12-05T02:38:44.263Z,6.85
2022-12-05T02:39:44.257Z,6.69
2022-12-05T02:40:44.252Z,6.85
2022-12-05T02:41:44.248Z,6.81
2022-12-05T02:42:44.263Z,6.88
2022-12-05T02:43:44.235Z,6.99
2022-12-05T02:44:44.226Z,6.91
2022-12-05T02:45:44.296Z,6.80
2022-12-05T02:46:44.219Z,6.79
2022-12-05T02:47:44.219Z,6.80
2022-12-05T02:48:44.208Z,6.81
2022-12-05T02:49:44.211Z,6.73
2022-12-05T02:50:44.202Z,6.84
2022-12-05T02:51:44.197Z,6.79
2022-12-05T02:52:44.194Z,6.77
2022-12-05T02:53:44.193Z,6.91
2022-12-05T02:54:44.186Z,6.89
2022-12-05T02:55:44.177Z,6.79
2022-12-05T02:56:44.172Z,6.88
2022-12-05T02:57:44.178Z,6.84
2022-12-05T02:58:44.189Z,6.89
2022-12-05T02:59:44.160Z,7.03
2022-12-05T03:00:44.158Z,6.94
2022-12-05T03:01:44.224Z,7.02
2022-12-05T03:02:44.145Z,6.98
2022-12-05T03:03:44.354Z,6.97
2022-12-05T03:04:44.277Z,6.97
2022-12-05T03:05:44.133Z,7.13
2022-12-05T03:06:44.125Z,7.06
2022-12-05T03:07:44.185Z,6.92
2022-12-05T03:08:44.114Z,6.94
2022-12-05T03:09:44.117Z,6.92
2022-12-05T03:10:44.107Z,6.98
2022-12-05T03:11:44.104Z,6.99
2022-12-05T03:12:44.110Z,7.12
2022-12-05T03:13:44.093Z,6.99
2022-12-05T03:14:44.118Z,7.03
2022-12-05T03:15:44.088Z,7.07
2022-12-05T03:16:44.115Z,7.03
2022-12-05T03:17:44.078Z,7.03
2022-12-05T03:18:44.070Z,6.97
2022-12-05T03:19:44.069Z,6.94
2022-12-05T03:20:44.056Z,7.02
2022-12-05T03:21:44.059Z,6.99
2022-12-05T03:22:44.050Z,6.98
2022-12-05T03:23:44.044Z,6.91
2022-12-05T03:24:44.038Z,7.05
2022-12-05T03:25:44.042Z,7.06
2022-12-05T03:26:44.031Z,7.02
2022-12-05T03:27:44.029Z,6.99
2022-12-05T03:28:44.020Z,6.98
2022-12-05T03:29:44.020Z,6.99
2022-12-05T03:30:44.099Z,6.87
2022-12-05T03:31:44.008Z,6.91
2022-12-05T03:32:44.004Z,6.85
2022-12-05T03:33:44.000Z,7.02
2022-12-05T03:34:43.994Z,6.92
2022-12-05T03:35:43.990Z,6.95
2022-12-05T03:36:43.982Z,7.02
2022-12-05T03:37:43.985Z,7.03
2022-12-05T03:38:43.972Z,7.06
2022-12-05T03:39:43.975Z,6.91
2022-12-05T03:40:43.964Z,7.09
2022-12-05T03:41:43.963Z,7.02
2022-12-05T03:42:43.955Z,7.03
2022-12-05T03:43:43.951Z,6.88
2022-12-05T03:44:43.944Z,6.87
2022-12-05T03:45:44.004Z,6.95
2022-12-05T03:46:43.972Z,6.97
2022-12-05T03:47:43.937Z,6.95
2022-12-05T03:48:43.926Z,6.88
2022-12-05T03:49:43.925Z,6.85
2022-12-05T03:50:43.918Z,6.99
2022-12-05T03:51:43.919Z,6.99
2022-12-05T03:53:17.520Z,7.12
2022-12-05T03:53:43.907Z,7.07
2022-12-05T03:54:43.898Z,6.98
2022-12-05T03:55:43.898Z,7.10
2022-12-05T03:56:43.888Z,6.94
2022-12-05T03:57:43.898Z,6.88
2022-12-05T03:58:43.881Z,7.06
2022-12-05T03:59:43.879Z,6.88
2022-12-05T04:00:43.872Z,6.89
2022-12-05T04:01:43.948Z,7.02
2022-12-05T04:02:43.887Z,7.02
2022-12-05T04:03:43.965Z,7.02
2022-12-05T04:04:43.853Z,7.10
2022-12-05T04:05:43.855Z,6.99
2022-12-05T04:06:43.851Z,6.98
2022-12-05T04:07:43.945Z,6.91
2022-12-05T04:08:43.837Z,6.79
2022-12-05T04:09:43.834Z,6.77
2022-12-05T04:10:43.825Z,6.71
2022-12-05T04:11:43.820Z,6.92
2022-12-05T04:12:43.813Z,6.88
2022-12-05T04:13:43.814Z,6.94
2022-12-05T04:14:43.807Z,7.03
2022-12-05T04:15:43.882Z,6.98
2022-12-05T04:16:43.799Z,6.91
2022-12-05T04:17:45.281Z,7.03
2022-12-05T04:18:43.819Z,6.99
2022-12-05T04:19:43.787Z,6.91
2022-12-05T04:20:43.778Z,7.03
2022-12-05T04:21:43.778Z,6.98
2022-12-05T04:22:43.767Z,6.99
2022-12-05T04:23:47.790Z,6.97
2022-12-05T04:24:43.760Z,6.88
2022-12-05T04:25:43.758Z,6.85
2022-12-05T04:26:43.749Z,6.94
2022-12-05T04:27:43.746Z,7.06
2022-12-05T04:28:43.740Z,6.88
2022-12-05T04:29:43.741Z,6.84
2022-12-05T04:30:43.787Z,6.84
2022-12-05T04:31:43.740Z,6.84
2022-12-05T04:32:43.723Z,6.79
2022-12-05T04:33:43.722Z,6.94
2022-12-05T04:34:43.732Z,6.85
2022-12-05T04:35:43.709Z,6.84
2022-12-05T04:36:43.703Z,7.03
2022-12-05T04:37:43.706Z,6.92
2022-12-05T04:38:43.695Z,7.02
2022-12-05T04:39:43.682Z,7.06
2022-12-05T04:40:43.690Z,6.97
2022-12-05T04:41:43.691Z,7.05
2022-12-05T04:42:43.678Z,6.99
2022-12-05T04:43:43.668Z,6.92
2022-12-05T04:44:43.668Z,7.10
2022-12-05T04:45:43.659Z,6.92
2022-12-05T04:46:43.766Z,6.97
2022-12-05T04:47:43.662Z,6.91
2022-12-05T04:48:43.647Z,6.99
2022-12-05T04:49:45.907Z,6.91
2022-12-05T04:50:43.666Z,6.85
2022-12-05T04:51:43.630Z,6.87
2022-12-05T04:52:43.633Z,6.99
2022-12-05T04:53:43.625Z,7.02
2022-12-05T04:54:43.622Z,6.99
2022-12-05T04:55:43.611Z,6.99
2022-12-05T04:56:43.614Z,6.85
2022-12-05T04:57:43.604Z,6.98
2022-12-05T04:58:43.605Z,7.02
2022-12-05T04:59:43.593Z,6.97
2022-12-05T05:00:43.589Z,6.97
2022-12-05T05:01:43.672Z,6.98
2022-12-05T05:02:43.665Z,6.89
2022-12-05T05:03:43.574Z,6.99
2022-12-05T05:04:43.577Z,6.91
2022-12-05T05:05:43.564Z,6.94
2022-12-05T05:06:43.597Z,7.03
2022-12-05T05:07:43.616Z,7.03
2022-12-05T05:08:43.557Z,7.03
2022-12-05T05:09:43.549Z,7.06
2022-12-05T05:10:43.545Z,7.02
2022-12-05T05:11:43.537Z,6.98
2022-12-05T05:12:43.536Z,6.99
2022-12-05T05:13:43.529Z,6.97
2022-12-05T05:14:43.526Z,7.02
2022-12-05T05:15:43.555Z,6.94
2022-12-05T05:16:43.518Z,6.98
2022-12-05T05:17:43.510Z,6.84
2022-12-05T05:18:43.509Z,6.84
2022-12-05T05:19:43.500Z,6.91
2022-12-05T05:20:43.498Z,7.15
2022-12-05T05:21:43.490Z,6.99
2022-12-05T05:22:43.598Z,7.10
2022-12-05T05:23:43.480Z,7.12
2022-12-05T05:24:43.483Z,6.88
2022-12-05T05:25:43.476Z,6.98
2022-12-05T05:26:43.476Z,7.06
2022-12-05T05:27:43.461Z,7.13
2022-12-05T05:28:43.461Z,6.95
2022-12-05T05:29:43.458Z,7.03
2022-12-05T05:30:43.453Z,7.06
2022-12-05T05:31:43.500Z,6.88
2022-12-05T05:32:43.444Z,6.94
2022-12-05T05:33:43.436Z,6.95
2022-12-05T05:34:43.441Z,6.95
2022-12-05T05:35:43.430Z,7.03
2022-12-05T05:36:43.425Z,6.89
2022-12-05T05:37:43.416Z,6.87
2022-12-05T05:38:43.445Z,7.03
2022-12-05T05:39:43.404Z,7.10
2022-12-05T05:40:43.406Z,6.98
2022-12-05T05:41:43.400Z,7.09
2022-12-05T05:42:43.395Z,7.12
2022-12-05T05:43:43.389Z,7.15
2022-12-05T05:44:43.383Z,7.09
2022-12-05T05:45:43.377Z,6.81
2022-12-05T05:46:43.450Z,6.94
2022-12-05T05:47:43.369Z,6.89
2022-12-05T05:48:43.372Z,6.95
2022-12-05T05:49:43.359Z,6.92
2022-12-05T05:50:43.360Z,6.98
2022-12-05T05:51:43.351Z,6.95
2022-12-05T05:52:43.354Z,7.03
2022-12-05T05:53:43.338Z,7.02
2022-12-05T05:54:43.364Z,6.99
2022-12-05T05:55:43.330Z,6.92
2022-12-05T05:56:43.338Z,6.89
2022-12-05T05:57:43.320Z,6.89
2022-12-05T05:58:43.320Z,6.95
2022-12-05T05:59:43.313Z,7.06
2022-12-05T06:00:43.320Z,6.91
2022-12-05T06:01:43.304Z,6.76
2022-12-05T06:02:43.389Z,6.89
2022-12-05T06:03:43.465Z,6.84
2022-12-05T06:04:43.290Z,6.89
2022-12-05T06:05:44.726Z,6.97
2022-12-05T06:06:43.283Z,7.07
2022-12-05T06:07:43.325Z,6.94
2022-12-05T06:08:43.277Z,6.92
2022-12-05T06:09:43.263Z,6.91
2022-12-05T06:10:43.294Z,6.84
2022-12-05T06:11:43.256Z,6.88
2022-12-05T06:12:43.256Z,6.89
2022-12-05T06:13:43.247Z,6.89
2022-12-05T06:14:43.245Z,6.77
2022-12-05T06:15:43.237Z,6.79
2022-12-05T06:16:43.318Z,6.84
2022-12-05T06:17:43.227Z,6.84
2022-12-05T06:18:43.226Z,6.88
2022-12-05T06:19:43.221Z,6.87
2022-12-05T06:20:43.220Z,6.79
2022-12-05T06:21:43.207Z,6.92
2022-12-05T06:22:43.208Z,6.88
2022-12-05T06:23:43.197Z,6.94
2022-12-05T06:24:43.195Z,6.88
2022-12-05T06:25:43.188Z,6.79
2022-12-05T06:26:43.214Z,6.85
2022-12-05T06:27:43.179Z,6.99
2022-12-05T06:28:43.185Z,6.87
2022-12-05T06:29:43.169Z,6.89
2022-12-05T06:30:43.170Z,6.91
2022-12-05T06:31:43.243Z,6.98
2022-12-05T06:32:43.158Z,6.92
2022-12-05T06:33:43.152Z,6.85
2022-12-05T06:34:43.151Z,6.81
2022-12-05T06:35:43.142Z,6.94
2022-12-05T06:36:43.138Z,6.89
2022-12-05T06:37:43.131Z,6.99
2022-12-05T06:38:43.131Z,7.02
2022-12-05T06:39:43.123Z,7.03
2022-12-05T06:40:43.123Z,6.89
2022-12-05T06:41:43.113Z,6.87
2022-12-05T06:42:43.147Z,7.03
2022-12-05T06:43:43.104Z,7.02
2022-12-05T06:44:43.099Z,6.99
2022-12-05T06:45:43.128Z,7.09
2022-12-05T06:46:43.090Z,7.06
2022-12-05T06:47:43.082Z,7.06
2022-12-05T06:48:43.082Z,6.97
2022-12-05T06:49:43.078Z,6.87
2022-12-05T06:50:43.075Z,6.88
2022-12-05T06:51:43.065Z,6.92
2022-12-05T06:52:43.065Z,6.97
2022-12-05T06:53:43.058Z,6.84
2022-12-05T06:54:43.060Z,6.97
2022-12-05T06:55:43.045Z,7.02
2022-12-05T06:56:43.048Z,7.12
2022-12-05T06:57:43.043Z,7.06
2022-12-05T06:58:43.060Z,6.99
2022-12-05T06:59:43.038Z,6.88
2022-12-05T07:00:43.100Z,6.91
2022-12-05T07:01:43.145Z,6.85
2022-12-05T07:02:43.107Z,6.95
2022-12-05T07:03:43.008Z,7.15
2022-12-05T07:04:43.008Z,7.02
2022-12-05T07:05:43.011Z,7.12
2022-12-05T07:06:46.211Z,7.02
2022-12-05T07:07:43.028Z,7.09
2022-12-05T07:08:42.989Z,7.15
2022-12-05T07:09:42.981Z,7.24
2022-12-05T07:10:42.985Z,7.16
2022-12-05T07:11:42.971Z,7.12
2022-12-05T07:12:42.970Z,7.20
2022-12-05T07:13:42.961Z,7.13
2022-12-05T07:14:48.205Z,7.06
2022-12-05T07:15:42.952Z,7.03
2022-12-05T07:16:42.979Z,7.13
2022-12-05T07:17:42.937Z,7.17
2022-12-05T07:18:42.940Z,7.10
2022-12-05T07:19:42.932Z,7.09
2022-12-05T07:21:10.676Z,7.06
2022-12-05T07:21:42.925Z,7.06
2022-12-05T07:22:42.926Z,7.06
2022-12-05T07:23:42.915Z,6.99
2022-12-05T07:24:42.912Z,6.89
2022-12-05T07:25:42.905Z,6.92
2022-12-05T07:26:42.901Z,7.02
2022-12-05T07:27:42.893Z,6.98
2022-12-05T07:28:42.905Z,6.99
2022-12-05T07:29:42.885Z,6.91
2022-12-05T07:30:42.917Z,6.98
2022-12-05T07:31:42.974Z,7.10
2022-12-05T07:32:42.874Z,6.98
2022-12-05T07:33:42.872Z,7.06
2022-12-05T07:34:42.867Z,7.12
2022-12-05T07:35:42.860Z,7.24
2022-12-05T07:36:42.854Z,7.12
2022-12-05T07:37:42.851Z,7.05
2022-12-05T07:38:42.854Z,6.91
2022-12-05T07:39:42.838Z,6.95
2022-12-05T07:40:42.836Z,6.85
2022-12-05T07:41:42.832Z,6.99
2022-12-05T07:42:42.828Z,6.99
2022-12-05T07:43:42.818Z,6.94
2022-12-05T07:44:42.818Z,6.88
2022-12-05T07:45:42.864Z,6.71
2022-12-05T07:46:42.847Z,6.77
2022-12-05T07:47:42.908Z,6.76
2022-12-05T07:48:42.804Z,6.77
2022-12-05T07:49:42.790Z,6.79
2022-12-05T07:50:42.788Z,6.81
2022-12-05T07:51:42.779Z,6.85
2022-12-05T07:52:42.784Z,6.94
2022-12-05T07:53:42.770Z,6.88
2022-12-05T07:54:42.771Z,6.99
2022-12-05T07:55:42.760Z,6.98
2022-12-05T07:56:47.531Z,7.05
2022-12-05T07:57:42.752Z,7.03
2022-12-05T07:58:42.751Z,6.88
2022-12-05T07:59:42.750Z,6.92
2022-12-05T08:00:42.743Z,6.77
2022-12-05T08:01:42.791Z,6.85
2022-12-05T08:02:42.804Z,6.89
2022-12-05T08:03:42.723Z,6.89
2022-12-05T08:04:42.721Z,6.85
2022-12-05T08:05:42.713Z,6.77
2022-12-05T08:06:42.711Z,6.91
2022-12-05T08:07:42.766Z,6.92
2022-12-05T08:08:42.702Z,6.89
2022-12-05T08:09:42.694Z,6.99
2022-12-05T08:10:42.695Z,7.15
2022-12-05T08:11:43.565Z,7.06
2022-12-05T08:12:42.685Z,7.17
2022-12-05T08:13:42.675Z,6.99
2022-12-05T08:14:42.680Z,6.88
2022-12-05T08:15:42.664Z,6.92
2022-12-05T08:16:42.719Z,6.98
2022-12-05T08:17:42.661Z,7.09
2022-12-05T08:18:42.683Z,7.03
2022-12-05T08:19:42.651Z,6.91
2022-12-05T08:20:42.652Z,6.98
2022-12-05T08:21:42.637Z,7.13
2022-12-05T08:22:42.640Z,7.10
2022-12-05T08:23:42.628Z,6.88
2022-12-05T08:24:42.626Z,6.94
2022-12-05T08:25:43.268Z,7.03
2022-12-05T08:26:42.618Z,6.97
2022-12-05T08:27:42.612Z,7.03
2022-12-05T08:28:42.614Z,6.99
2022-12-05T08:29:42.600Z,6.95
2022-12-05T08:30:42.733Z,6.80
2022-12-05T08:31:42.588Z,6.92
2022-12-05T08:32:42.585Z,6.95
2022-12-05T08:33:42.580Z,7.02
2022-12-05T08:34:42.603Z,6.80
2022-12-05T08:35:42.570Z,6.89
2022-12-05T08:36:42.567Z,6.98
2022-12-05T08:37:42.561Z,6.99
2022-12-05T08:38:42.557Z,6.89
2022-12-05T08:39:42.551Z,6.85
2022-12-05T08:40:42.549Z,6.77
2022-12-05T08:41:42.541Z,6.88
2022-12-05T08:42:42.540Z,6.74
2022-12-05T08:43:42.532Z,6.81
2022-12-05T08:44:42.537Z,6.98
2022-12-05T08:45:42.591Z,6.84
2022-12-05T08:46:42.616Z,6.88
2022-12-05T08:47:42.514Z,6.85
2022-12-05T08:48:42.517Z,6.85
2022-12-05T08:49:42.501Z,6.92
2022-12-05T08:50:42.541Z,6.99
2022-12-05T08:51:42.511Z,6.99
2022-12-05T08:52:42.495Z,7.05
2022-12-05T08:53:44.657Z,7.02
2022-12-05T08:54:42.484Z,6.94
2022-12-05T08:55:42.482Z,6.95
2022-12-05T08:56:42.474Z,6.81
2022-12-05T08:57:42.467Z,6.80
2022-12-05T08:58:42.458Z,6.84
2022-12-05T08:59:42.461Z,6.88
2022-12-05T09:00:42.460Z,6.89
2022-12-05T09:01:42.634Z,6.92
2022-12-05T09:02:42.522Z,6.98
2022-12-05T09:03:47.627Z,7.06
2022-12-05T09:04:42.431Z,6.99
2022-12-05T09:05:42.434Z,6.87
2022-12-05T09:06:42.443Z,6.91
2022-12-05T09:07:42.484Z,7.03
2022-12-05T09:08:42.414Z,6.88
2022-12-05T09:09:42.411Z,6.77
2022-12-05T09:10:42.406Z,6.85
2022-12-05T09:11:42.399Z,6.80
2022-12-05T09:12:42.392Z,6.94
2022-12-05T09:13:42.399Z,6.94
2022-12-05T09:14:42.388Z,6.98
2022-12-05T09:15:42.427Z,7.02
2022-12-05T09:16:42.377Z,7.02
2022-12-05T09:17:42.374Z,6.91
2022-12-05T09:18:42.383Z,6.88
2022-12-05T09:19:42.368Z,6.94
2022-12-05T09:20:42.355Z,7.02
2022-12-05T09:21:42.351Z,7.06
2022-12-05T09:22:42.367Z,7.13
2022-12-05T09:23:42.349Z,7.23
2022-12-05T09:24:42.336Z,7.07
2022-12-05T09:25:42.336Z,7.03
2022-12-05T09:26:42.331Z,6.99
2022-12-05T09:27:42.325Z,7.10
2022-12-05T09:28:42.315Z,6.97
2022-12-05T09:29:42.316Z,7.10
2022-12-05T09:30:42.331Z,7.12
2022-12-05T09:31:42.458Z,7.05
2022-12-05T09:32:42.295Z,7.06
2022-12-05T09:33:42.303Z,7.03
2022-12-05T09:34:42.611Z,6.88
2022-12-05T09:35:42.285Z,7.02
2022-12-05T09:36:42.280Z,7.12
2022-12-05T09:37:42.277Z,7.12
2022-12-05T09:38:42.319Z,7.10
2022-12-05T09:39:42.265Z,7.13
2022-12-05T09:40:42.258Z,7.09
2022-12-05T09:41:42.258Z,7.12
2022-12-05T09:42:42.248Z,7.07
2022-12-05T09:43:42.250Z,6.99
2022-12-05T09:44:42.242Z,7.02
2022-12-05T09:45:42.239Z,7.15
2022-12-05T09:46:42.265Z,6.99
2022-12-05T09:47:42.231Z,7.03
2022-12-05T09:48:42.221Z,7.07
2022-12-05T09:49:42.215Z,7.24
2022-12-05T09:50:42.213Z,7.28
2022-12-05T09:51:42.210Z,7.27
2022-12-05T09:52:42.203Z,6.97
2022-12-05T09:53:42.224Z,6.99
2022-12-05T09:54:42.215Z,7.21
2022-12-05T09:55:42.193Z,6.98
2022-12-05T09:56:42.182Z,6.98
2022-12-05T09:57:42.184Z,6.97
2022-12-05T09:58:42.175Z,7.05
2022-12-05T09:59:42.176Z,6.97
2022-12-05T10:00:42.171Z,7.12
2022-12-05T10:01:42.367Z,7.07
2022-12-05T10:02:42.156Z,7.12
2022-12-05T10:03:42.157Z,7.02
2022-12-05T10:04:42.241Z,7.12
2022-12-05T10:05:42.143Z,7.09
2022-12-05T10:06:42.139Z,7.23
2022-12-05T10:07:42.186Z,7.24
2022-12-05T10:08:42.127Z,7.23
2022-12-05T10:09:42.130Z,7.21
2022-12-05T10:10:42.151Z,6.97
2022-12-05T10:11:42.114Z,7.05
2022-12-05T10:12:42.107Z,7.09
2022-12-05T10:13:42.113Z,7.12
2022-12-05T10:14:42.097Z,7.16
2022-12-05T10:15:45.537Z,6.97
2022-12-05T10:16:42.202Z,7.05
2022-12-05T10:17:42.090Z,7.12
2022-12-05T10:18:42.090Z,7.16
2022-12-05T10:19:42.075Z,7.09
2022-12-05T10:20:42.072Z,7.07
2022-12-05T10:21:42.069Z,7.25
2022-12-05T10:22:42.064Z,7.13
2022-12-05T10:23:57.165Z,7.16
2022-12-05T10:24:42.054Z,7.13
2022-12-05T10:25:42.049Z,6.98
2022-12-05T10:26:42.063Z,7.12
2022-12-05T10:27:42.040Z,7.17
2022-12-05T10:28:42.034Z,7.17
2022-12-05T10:29:42.031Z,7.34
2022-12-05T10:30:42.223Z,7.46
2022-12-05T10:31:42.146Z,7.48
2022-12-05T10:32:42.014Z,7.49
2022-12-05T10:33:42.017Z,7.40
2022-12-05T10:34:42.008Z,7.37
2022-12-05T10:35:42.008Z,7.39
2022-12-05T10:36:41.998Z,7.55
2022-12-05T10:37:41.990Z,7.57
2022-12-05T10:38:42.040Z,7.45
2022-12-05T10:39:41.988Z,7.43
2022-12-05T10:40:41.981Z,7.42
2022-12-05T10:41:41.976Z,7.40
2022-12-05T10:42:41.989Z,7.30
2022-12-05T10:43:41.978Z,7.34
2022-12-05T10:44:41.964Z,7.32
2022-12-05T10:45:41.958Z,7.30
2022-12-05T10:46:42.022Z,7.49
2022-12-05T10:47:41.945Z,7.39
2022-12-05T10:48:41.941Z,7.34
2022-12-05T10:49:41.941Z,7.34
2022-12-05T10:50:41.933Z,7.46
2022-12-05T10:51:41.932Z,7.55
2022-12-05T10:52:41.927Z,7.45
2022-12-05T10:53:41.922Z,7.35
2022-12-05T10:54:41.917Z,7.35
2022-12-05T10:55:54.775Z,7.39
2022-12-05T10:56:41.905Z,7.35
2022-12-05T10:57:41.907Z,7.37
2022-12-05T10:58:41.915Z,7.43
2022-12-05T10:59:41.891Z,7.28
2022-12-05T11:00:41.889Z,7.32
2022-12-05T11:01:41.993Z,7.42
2022-12-05T11:02:41.882Z,7.39
2022-12-05T11:03:41.879Z,7.40
2022-12-05T11:04:41.951Z,7.42
2022-12-05T11:05:41.939Z,7.25
2022-12-05T11:06:41.861Z,7.20
2022-12-05T11:07:41.917Z,7.17
2022-12-05T11:09:03.882Z,7.20
2022-12-05T11:09:41.854Z,7.31
2022-12-05T11:10:41.852Z,7.34
2022-12-05T11:11:41.835Z,7.25
2022-12-05T11:12:41.836Z,7.34
2022-12-05T11:13:41.827Z,7.43
2022-12-05T11:14:41.855Z,7.35
2022-12-05T11:15:41.898Z,7.39
2022-12-05T11:16:41.892Z,7.42
2022-12-05T11:17:41.812Z,7.49
2022-12-05T11:18:41.808Z,7.42
2022-12-05T11:19:41.805Z,7.46
2022-12-05T11:20:41.801Z,7.52
2022-12-05T11:21:41.802Z,7.34
2022-12-05T11:22:45.757Z,7.31
2022-12-05T11:23:41.787Z,7.25
2022-12-05T11:24:41.775Z,7.31
2022-12-05T11:25:41.778Z,7.30
2022-12-05T11:26:41.792Z,7.24
2022-12-05T11:27:41.769Z,7.27
2022-12-05T11:28:41.762Z,7.40
2022-12-05T11:29:41.762Z,7.40
2022-12-05T11:30:41.773Z,7.43
2022-12-05T11:31:41.833Z,7.42
2022-12-05T11:32:41.747Z,7.39
2022-12-05T11:33:41.737Z,7.45
2022-12-05T11:34:41.732Z,7.50
2022-12-05T11:35:41.741Z,7.57
2022-12-05T11:36:41.722Z,7.69
2022-12-05T11:37:41.721Z,7.71
2022-12-05T11:38:41.714Z,7.69
2022-12-05T11:39:41.724Z,7.71
2022-12-05T11:40:41.707Z,7.75
2022-12-05T11:41:41.709Z,7.83
2022-12-05T11:42:41.695Z,7.92
2022-12-05T11:43:41.694Z,7.97
2022-12-05T11:44:41.686Z,7.92
2022-12-05T11:45:41.682Z,8.00
2022-12-05T11:46:41.788Z,7.95
2022-12-05T11:47:41.676Z,7.98
2022-12-05T11:48:41.677Z,8.00
2022-12-05T11:49:41.675Z,7.97
2022-12-05T11:50:41.664Z,7.95
2022-12-05T11:51:41.660Z,7.95
2022-12-05T11:52:41.968Z,7.98
2022-12-05T11:53:41.724Z,7.97
2022-12-05T11:55:04.358Z,7.95
2022-12-05T11:55:41.643Z,7.85
2022-12-05T11:56:41.639Z,7.85
2022-12-05T11:57:41.635Z,7.86
2022-12-05T11:58:41.632Z,7.77
2022-12-05T11:59:41.626Z,7.69
2022-12-05T12:00:41.612Z,7.77
2022-12-05T12:01:41.702Z,7.74
2022-12-05T12:02:41.779Z,7.79
2022-12-05T12:03:41.680Z,7.61
2022-12-05T12:04:41.607Z,7.50
2022-12-05T12:05:41.600Z,7.64
2022-12-05T12:06:41.589Z,7.74
2022-12-05T12:07:41.601Z,7.57
2022-12-05T12:08:41.583Z,7.72
2022-12-05T12:09:41.578Z,7.55
2022-12-05T12:10:41.581Z,7.55
2022-12-05T12:11:41.571Z,7.74
2022-12-05T12:12:41.565Z,7.72
2022-12-05T12:13:41.564Z,7.71
2022-12-05T12:14:41.557Z,7.60
2022-12-05T12:15:41.560Z,7.48
2022-12-05T12:16:41.579Z,7.53
2022-12-05T12:17:41.544Z,7.48
2022-12-05T12:18:41.564Z,7.49
2022-12-05T12:19:41.543Z,7.43
2022-12-05T12:20:41.531Z,7.45
2022-12-05T12:21:41.534Z,7.46
2022-12-05T12:22:41.520Z,7.48
2022-12-05T12:23:41.518Z,7.58
2022-12-05T12:24:41.513Z,7.48
2022-12-05T12:25:41.509Z,7.35
2022-12-05T12:26:41.503Z,7.53
2022-12-05T12:27:41.498Z,7.42
2022-12-05T12:28:41.501Z,7.39
2022-12-05T12:29:42.907Z,7.45
2022-12-05T12:30:41.493Z,7.71
2022-12-05T12:31:41.539Z,7.75
2022-12-05T12:32:41.476Z,7.55
2022-12-05T12:33:41.477Z,7.40
2022-12-05T12:34:41.507Z,7.48
2022-12-05T12:35:41.465Z,7.52
2022-12-05T12:36:41.460Z,7.52
2022-12-05T12:37:41.465Z,7.69
2022-12-05T12:38:41.448Z,7.48
2022-12-05T12:39:41.449Z,7.63
2022-12-05T12:40:41.445Z,7.71
2022-12-05T12:41:41.449Z,7.64
2022-12-05T12:42:41.442Z,7.58
2022-12-05T12:43:56.805Z,7.49
2022-12-05T12:44:41.430Z,7.53
2022-12-05T12:45:41.444Z,7.46
2022-12-05T12:46:41.420Z,7.49
2022-12-05T12:47:41.412Z,7.39
2022-12-05T12:48:41.410Z,7.46
2022-12-05T12:49:41.406Z,7.48
2022-12-05T12:50:43.840Z,7.43
2022-12-05T12:51:41.396Z,7.40
2022-12-05T12:52:41.391Z,7.67
2022-12-05T12:53:41.397Z,7.45
2022-12-05T12:55:02.909Z,7.42
2022-12-05T12:55:41.382Z,7.45
2022-12-05T12:56:41.371Z,7.48
2022-12-05T12:57:41.370Z,7.67
2022-12-05T12:58:41.370Z,7.57
2022-12-05T12:59:41.361Z,7.50
2022-12-05T13:00:41.443Z,7.50
2022-12-05T13:01:41.446Z,7.71
2022-12-05T13:02:41.424Z,7.58
2022-12-05T13:03:41.351Z,7.71
2022-12-05T13:04:41.338Z,7.77
2022-12-05T13:05:41.339Z,7.74
2022-12-05T13:06:41.355Z,7.71
2022-12-05T13:07:41.360Z,7.67
2022-12-05T13:08:41.321Z,7.52
2022-12-05T13:09:41.318Z,7.48
2022-12-05T13:10:41.313Z,7.52
2022-12-05T13:11:41.315Z,7.49
2022-12-05T13:12:41.316Z,7.58
2022-12-05T13:13:41.308Z,7.57
2022-12-05T13:14:41.301Z,7.71
2022-12-05T13:15:41.290Z,7.53
2022-12-05T13:16:45.795Z,7.45
2022-12-05T13:17:41.286Z,7.55
2022-12-05T13:18:41.280Z,7.55